HHR weather

Jack Northrop Field Hawthorne Municipal Airport
Hawthorne, California, United States

Public forecast

Using degrees Fahrenheit for public forecast. Weather courtesy of forecast.io.

Current aviation weather report (METAR) for Jack Northrop Field Hawthorne Municipal Airport

Retrieved 2020/04/08 19:53 UTC (2 hours ago):

KHHR 081953Z 21008KT 10SM SCT035 BKN045 15/06 A3003 RMK AO2 SLP170 T01500056

Closest aviation forecast (TAF) to Jack Northrop Field Hawthorne Municipal Airport

Closest forecast is Los Angeles International Airport, 3.8 nm (7.1 km) WNW. Retrieved 2020/04/08 18:48 UTC (3 hours ago):

TAF KLAX 081746Z 0818/0924 27008KT P6SM -RA VCSH SCT023 SCT030 BKN050 FM082100 23008KT P6SM -SHRA BKN050 FM090300 VRB03KT P6SM -SHRA BKN035 FM090900 VRB03KT P6SM -SHRA BKN025 FM091500 VRB03KT 5SM -SHRA BKN012 FM092000 26010KT P6SM -SHRA BKN025